sensor_id;sensor_type;location;lat;lon;timestamp;temperature;humidity
31113;DHT22;17763;48.730;9.136;2023-02-21T00:00:28;8.60;71.10
31113;DHT22;17763;48.730;9.136;2023-02-21T00:03:12;8.50;71.20
31113;DHT22;17763;48.730;9.136;2023-02-21T00:05:59;8.50;71.40
31113;DHT22;17763;48.730;9.136;2023-02-21T00:08:43;8.50;71.70
31113;DHT22;17763;48.730;9.136;2023-02-21T00:11:27;8.50;71.90
31113;DHT22;17763;48.730;9.136;2023-02-21T00:14:12;8.50;72.00
31113;DHT22;17763;48.730;9.136;2023-02-21T00:16:56;8.50;72.10
31113;DHT22;17763;48.730;9.136;2023-02-21T00:19:40;8.50;72.20
31113;DHT22;17763;48.730;9.136;2023-02-21T00:22:24;8.50;72.30
31113;DHT22;17763;48.730;9.136;2023-02-21T00:25:18;8.50;72.40
31113;DHT22;17763;48.730;9.136;2023-02-21T00:28:02;8.50;72.50
31113;DHT22;17763;48.730;9.136;2023-02-21T00:30:46;8.50;72.60
31113;DHT22;17763;48.730;9.136;2023-02-21T00:33:35;8.50;72.70
31113;DHT22;17763;48.730;9.136;2023-02-21T00:36:19;8.60;72.80
31113;DHT22;17763;48.730;9.136;2023-02-21T00:39:03;8.60;72.80
31113;DHT22;17763;48.730;9.136;2023-02-21T00:41:49;8.60;72.90
31113;DHT22;17763;48.730;9.136;2023-02-21T00:44:33;8.60;72.90
31113;DHT22;17763;48.730;9.136;2023-02-21T00:47:20;8.60;72.90
31113;DHT22;17763;48.730;9.136;2023-02-21T00:50:04;8.60;72.90
31113;DHT22;17763;48.730;9.136;2023-02-21T00:52:51;8.60;72.90
31113;DHT22;17763;48.730;9.136;2023-02-21T00:55:35;8.70;73.00
31113;DHT22;17763;48.730;9.136;2023-02-21T00:58:22;8.60;72.90
31113;DHT22;17763;48.730;9.136;2023-02-21T01:01:06;8.60;72.90
31113;DHT22;17763;48.730;9.136;2023-02-21T01:03:58;8.70;73.00
31113;DHT22;17763;48.730;9.136;2023-02-21T01:06:42;8.60;73.00
31113;DHT22;17763;48.730;9.136;2023-02-21T01:09:29;8.60;73.10
31113;DHT22;17763;48.730;9.136;2023-02-21T01:12:13;8.70;73.20
31113;DHT22;17763;48.730;9.136;2023-02-21T01:15:00;8.60;73.10
31113;DHT22;17763;48.730;9.136;2023-02-21T01:17:44;8.60;73.20
31113;DHT22;17763;48.730;9.136;2023-02-21T01:20:28;8.60;73.20
31113;DHT22;17763;48.730;9.136;2023-02-21T01:23:14;8.60;73.30
31113;DHT22;17763;48.730;9.136;2023-02-21T01:25:59;8.60;73.40
31113;DHT22;17763;48.730;9.136;2023-02-21T01:28:43;8.50;73.40
31113;DHT22;17763;48.730;9.136;2023-02-21T01:31:27;8.60;73.50
31113;DHT22;17763;48.730;9.136;2023-02-21T01:34:11;8.50;73.40
31113;DHT22;17763;48.730;9.136;2023-02-21T01:36:56;8.50;73.50
31113;DHT22;17763;48.730;9.136;2023-02-21T01:39:40;8.60;73.60
31113;DHT22;17763;48.730;9.136;2023-02-21T01:42:24;8.50;73.60
31113;DHT22;17763;48.730;9.136;2023-02-21T01:48:10;8.50;73.70
31113;DHT22;17763;48.730;9.136;2023-02-21T01:50:56;8.50;73.60
31113;DHT22;17763;48.730;9.136;2023-02-21T01:53:41;8.50;73.70
31113;DHT22;17763;48.730;9.136;2023-02-21T01:56:26;8.50;73.80
31113;DHT22;17763;48.730;9.136;2023-02-21T01:59:11;8.50;73.90
31113;DHT22;17763;48.730;9.136;2023-02-21T02:02:13;8.50;73.90
31113;DHT22;17763;48.730;9.136;2023-02-21T02:04:59;8.50;74.00
31113;DHT22;17763;48.730;9.136;2023-02-21T02:07:44;8.40;74.10
31113;DHT22;17763;48.730;9.136;2023-02-21T02:10:29;8.40;74.10
31113;DHT22;17763;48.730;9.136;2023-02-21T02:21:41;8.40;74.40
31113;DHT22;17763;48.730;9.136;2023-02-21T02:24:42;8.40;74.50
31113;DHT22;17763;48.730;9.136;2023-02-21T02:27:28;8.40;74.60
31113;DHT22;17763;48.730;9.136;2023-02-21T02:36:13;8.40;74.70
31113;DHT22;17763;48.730;9.136;2023-02-21T02:39:04;8.50;74.80
31113;DHT22;17763;48.730;9.136;2023-02-21T02:44:40;8.50;74.80
31113;DHT22;17763;48.730;9.136;2023-02-21T02:47:07;8.40;74.60
31113;DHT22;17763;48.730;9.136;2023-02-21T02:49:37;8.40;74.70
31113;DHT22;17763;48.730;9.136;2023-02-21T02:52:07;8.50;74.80
31113;DHT22;17763;48.730;9.136;2023-02-21T02:54:35;8.40;74.80
31113;DHT22;17763;48.730;9.136;2023-02-21T02:57:04;8.40;74.80
31113;DHT22;17763;48.730;9.136;2023-02-21T02:59:36;8.40;74.80
31113;DHT22;17763;48.730;9.136;2023-02-21T03:02:32;8.40;74.90
31113;DHT22;17763;48.730;9.136;2023-02-21T03:08:03;8.40;74.90
31113;DHT22;17763;48.730;9.136;2023-02-21T03:13:42;8.50;75.00
31113;DHT22;17763;48.730;9.136;2023-02-21T03:16:27;8.50;75.00
31113;DHT22;17763;48.730;9.136;2023-02-21T03:19:02;8.40;74.90
31113;DHT22;17763;48.730;9.136;2023-02-21T03:21:42;8.40;74.90
31113;DHT22;17763;48.730;9.136;2023-02-21T03:24:10;8.50;74.90
31113;DHT22;17763;48.730;9.136;2023-02-21T03:26:39;8.40;74.80
31113;DHT22;17763;48.730;9.136;2023-02-21T03:29:07;8.40;74.80
31113;DHT22;17763;48.730;9.136;2023-02-21T03:31:40;8.40;75.00
31113;DHT22;17763;48.730;9.136;2023-02-21T03:34:08;8.40;75.00
31113;DHT22;17763;48.730;9.136;2023-02-21T03:36:37;8.40;75.00
31113;DHT22;17763;48.730;9.136;2023-02-21T03:39:08;8.40;75.10
31113;DHT22;17763;48.730;9.136;2023-02-21T03:41:36;8.40;75.10
31113;DHT22;17763;48.730;9.136;2023-02-21T03:44:02;8.30;75.20
31113;DHT22;17763;48.730;9.136;2023-02-21T03:46:27;8.30;75.30
31113;DHT22;17763;48.730;9.136;2023-02-21T03:48:53;8.40;75.30
31113;DHT22;17763;48.730;9.136;2023-02-21T03:51:21;8.40;75.30
31113;DHT22;17763;48.730;9.136;2023-02-21T03:53:49;8.40;75.30
31113;DHT22;17763;48.730;9.136;2023-02-21T03:56:15;8.40;75.30
31113;DHT22;17763;48.730;9.136;2023-02-21T03:58:40;8.40;75.20
31113;DHT22;17763;48.730;9.136;2023-02-21T04:01:08;8.30;75.20
31113;DHT22;17763;48.730;9.136;2023-02-21T04:03:34;8.30;75.30
31113;DHT22;17763;48.730;9.136;2023-02-21T04:05:59;8.30;75.30
31113;DHT22;17763;48.730;9.136;2023-02-21T04:08:25;8.30;75.30
31113;DHT22;17763;48.730;9.136;2023-02-21T04:10:51;8.30;75.40
31113;DHT22;17763;48.730;9.136;2023-02-21T04:13:17;8.30;75.40
31113;DHT22;17763;48.730;9.136;2023-02-21T04:15:43;8.30;75.40
31113;DHT22;17763;48.730;9.136;2023-02-21T04:18:09;8.30;75.50
31113;DHT22;17763;48.730;9.136;2023-02-21T04:20:35;8.30;75.50
31113;DHT22;17763;48.730;9.136;2023-02-21T04:23:00;8.30;75.60
31113;DHT22;17763;48.730;9.136;2023-02-21T04:25:26;8.20;75.60
31113;DHT22;17763;48.730;9.136;2023-02-21T04:27:52;8.20;75.60
31113;DHT22;17763;48.730;9.136;2023-02-21T04:30:18;8.20;75.60
31113;DHT22;17763;48.730;9.136;2023-02-21T04:32:46;8.20;75.60
31113;DHT22;17763;48.730;9.136;2023-02-21T04:35:12;8.20;75.60
31113;DHT22;17763;48.730;9.136;2023-02-21T04:37:40;8.20;75.60
31113;DHT22;17763;48.730;9.136;2023-02-21T04:40:08;8.20;75.70
31113;DHT22;17763;48.730;9.136;2023-02-21T04:42:34;8.10;75.70
31113;DHT22;17763;48.730;9.136;2023-02-21T04:45:00;8.20;75.80
31113;DHT22;17763;48.730;9.136;2023-02-21T04:47:25;8.10;75.70
31113;DHT22;17763;48.730;9.136;2023-02-21T04:49:54;8.10;75.70
31113;DHT22;17763;48.730;9.136;2023-02-21T04:52:19;8.10;75.80
31113;DHT22;17763;48.730;9.136;2023-02-21T04:54:46;8.10;75.90
31113;DHT22;17763;48.730;9.136;2023-02-21T04:57:12;8.10;76.00
31113;DHT22;17763;48.730;9.136;2023-02-21T04:59:38;8.10;76.10
31113;DHT22;17763;48.730;9.136;2023-02-21T05:02:04;8.00;76.10
31113;DHT22;17763;48.730;9.136;2023-02-21T05:04:32;8.00;76.20
31113;DHT22;17763;48.730;9.136;2023-02-21T05:06:58;8.00;76.40
31113;DHT22;17763;48.730;9.136;2023-02-21T05:09:26;8.00;76.60
31113;DHT22;17763;48.730;9.136;2023-02-21T05:11:52;7.90;76.70
31113;DHT22;17763;48.730;9.136;2023-02-21T05:14:18;8.00;77.40
31113;DHT22;17763;48.730;9.136;2023-02-21T05:16:44;8.00;77.10
31113;DHT22;17763;48.730;9.136;2023-02-21T05:19:10;7.90;77.10
31113;DHT22;17763;48.730;9.136;2023-02-21T05:21:36;8.00;77.20
31113;DHT22;17763;48.730;9.136;2023-02-21T05:24:04;8.00;77.20
31113;DHT22;17763;48.730;9.136;2023-02-21T05:26:34;8.00;77.20
31113;DHT22;17763;48.730;9.136;2023-02-21T05:29:02;8.00;77.10
31113;DHT22;17763;48.730;9.136;2023-02-21T05:31:28;8.00;77.00
31113;DHT22;17763;48.730;9.136;2023-02-21T05:33:55;7.90;77.10
31113;DHT22;17763;48.730;9.136;2023-02-21T05:36:21;8.00;77.20
31113;DHT22;17763;48.730;9.136;2023-02-21T05:38:52;7.90;77.40
31113;DHT22;17763;48.730;9.136;2023-02-21T05:41:19;7.90;77.40
31113;DHT22;17763;48.730;9.136;2023-02-21T05:43:47;7.90;77.50
31113;DHT22;17763;48.730;9.136;2023-02-21T05:46:29;7.80;77.90
31113;DHT22;17763;48.730;9.136;2023-02-21T05:48:56;7.80;77.90
31113;DHT22;17763;48.730;9.136;2023-02-21T05:51:24;7.80;77.50
31113;DHT22;17763;48.730;9.136;2023-02-21T05:53:50;7.70;77.60
31113;DHT22;17763;48.730;9.136;2023-02-21T05:56:16;7.70;77.70
31113;DHT22;17763;48.730;9.136;2023-02-21T05:58:45;7.60;77.90
31113;DHT22;17763;48.730;9.136;2023-02-21T06:01:11;7.60;78.00
31113;DHT22;17763;48.730;9.136;2023-02-21T06:03:36;7.50;78.20
31113;DHT22;17763;48.730;9.136;2023-02-21T06:06:02;7.50;78.40
31113;DHT22;17763;48.730;9.136;2023-02-21T06:08:28;7.50;78.50
31113;DHT22;17763;48.730;9.136;2023-02-21T06:10:56;7.40;78.80
31113;DHT22;17763;48.730;9.136;2023-02-21T06:13:22;7.40;79.10
31113;DHT22;17763;48.730;9.136;2023-02-21T06:15:50;7.30;79.10
31113;DHT22;17763;48.730;9.136;2023-02-21T06:18:16;7.30;79.40
31113;DHT22;17763;48.730;9.136;2023-02-21T06:20:43;7.30;79.70
31113;DHT22;17763;48.730;9.136;2023-02-21T06:23:08;7.30;79.90
31113;DHT22;17763;48.730;9.136;2023-02-21T06:25:34;7.30;80.10
31113;DHT22;17763;48.730;9.136;2023-02-21T06:28:00;7.20;80.10
31113;DHT22;17763;48.730;9.136;2023-02-21T06:30:26;7.20;80.20
31113;DHT22;17763;48.730;9.136;2023-02-21T06:32:51;7.20;80.40
31113;DHT22;17763;48.730;9.136;2023-02-21T06:35:19;7.20;80.50
31113;DHT22;17763;48.730;9.136;2023-02-21T06:37:45;7.10;80.60
31113;DHT22;17763;48.730;9.136;2023-02-21T06:40:13;7.10;80.80
31113;DHT22;17763;48.730;9.136;2023-02-21T06:42:39;7.10;81.00
31113;DHT22;17763;48.730;9.136;2023-02-21T06:45:05;7.10;81.20
31113;DHT22;17763;48.730;9.136;2023-02-21T06:47:31;7.10;81.40
31113;DHT22;17763;48.730;9.136;2023-02-21T06:49:56;7.00;81.60
31113;DHT22;17763;48.730;9.136;2023-02-21T06:52:22;7.10;81.90
31113;DHT22;17763;48.730;9.136;2023-02-21T06:54:51;7.10;82.00
31113;DHT22;17763;48.730;9.136;2023-02-21T06:57:17;7.10;82.10
31113;DHT22;17763;48.730;9.136;2023-02-21T06:59:43;7.00;82.20
31113;DHT22;17763;48.730;9.136;2023-02-21T07:02:17;7.00;82.40
31113;DHT22;17763;48.730;9.136;2023-02-21T07:04:44;7.00;82.80
31113;DHT22;17763;48.730;9.136;2023-02-21T07:07:10;6.90;83.10
31113;DHT22;17763;48.730;9.136;2023-02-21T07:09:35;6.90;83.50
31113;DHT22;17763;48.730;9.136;2023-02-21T07:12:03;7.00;84.00
31113;DHT22;17763;48.730;9.136;2023-02-21T07:14:29;7.00;84.40
31113;DHT22;17763;48.730;9.136;2023-02-21T07:16:55;7.10;84.60
31113;DHT22;17763;48.730;9.136;2023-02-21T07:19:21;7.10;84.70
31113;DHT22;17763;48.730;9.136;2023-02-21T07:21:54;7.20;84.90
31113;DHT22;17763;48.730;9.136;2023-02-21T07:24:20;7.20;84.90
31113;DHT22;17763;48.730;9.136;2023-02-21T07:26:46;7.30;85.30
31113;DHT22;17763;48.730;9.136;2023-02-21T07:29:13;7.30;85.40
31113;DHT22;17763;48.730;9.136;2023-02-21T07:31:39;7.20;85.50
31113;DHT22;17763;48.730;9.136;2023-02-21T07:34:05;7.30;85.60
31113;DHT22;17763;48.730;9.136;2023-02-21T07:36:31;7.30;85.90
31113;DHT22;17763;48.730;9.136;2023-02-21T07:38:58;7.30;86.30
31113;DHT22;17763;48.730;9.136;2023-02-21T07:41:26;7.30;87.60
31113;DHT22;17763;48.730;9.136;2023-02-21T07:43:52;7.40;87.60
31113;DHT22;17763;48.730;9.136;2023-02-21T07:46:18;7.40;87.40
31113;DHT22;17763;48.730;9.136;2023-02-21T07:48:43;7.50;87.30
31113;DHT22;17763;48.730;9.136;2023-02-21T07:51:12;7.60;87.20
31113;DHT22;17763;48.730;9.136;2023-02-21T07:53:38;7.60;87.10
31113;DHT22;17763;48.730;9.136;2023-02-21T07:56:04;7.70;87.10
31113;DHT22;17763;48.730;9.136;2023-02-21T07:58:30;7.70;87.10
31113;DHT22;17763;48.730;9.136;2023-02-21T08:00:59;7.70;87.20
31113;DHT22;17763;48.730;9.136;2023-02-21T08:03:27;7.80;87.30
31113;DHT22;17763;48.730;9.136;2023-02-21T08:05:53;7.90;87.40
31113;DHT22;17763;48.730;9.136;2023-02-21T08:08:19;7.90;87.40
31113;DHT22;17763;48.730;9.136;2023-02-21T08:10:44;8.00;87.40
31113;DHT22;17763;48.730;9.136;2023-02-21T08:13:13;8.00;87.40
31113;DHT22;17763;48.730;9.136;2023-02-21T08:15:39;8.10;87.60
31113;DHT22;17763;48.730;9.136;2023-02-21T08:18:14;8.10;87.60
31113;DHT22;17763;48.730;9.136;2023-02-21T08:20:43;8.10;87.70
31113;DHT22;17763;48.730;9.136;2023-02-21T08:23:11;8.20;87.90
31113;DHT22;17763;48.730;9.136;2023-02-21T08:25:39;8.30;88.20
31113;DHT22;17763;48.730;9.136;2023-02-21T08:28:07;8.40;88.40
31113;DHT22;17763;48.730;9.136;2023-02-21T08:30:35;8.40;88.50
31113;DHT22;17763;48.730;9.136;2023-02-21T08:33:03;8.50;88.50
31113;DHT22;17763;48.730;9.136;2023-02-21T08:35:31;8.60;88.70
31113;DHT22;17763;48.730;9.136;2023-02-21T08:37:59;8.60;88.80
31113;DHT22;17763;48.730;9.136;2023-02-21T08:40:29;8.70;88.80
31113;DHT22;17763;48.730;9.136;2023-02-21T08:42:56;8.80;88.80
31113;DHT22;17763;48.730;9.136;2023-02-21T08:45:27;8.80;88.80
31113;DHT22;17763;48.730;9.136;2023-02-21T08:47:53;8.90;88.90
31113;DHT22;17763;48.730;9.136;2023-02-21T08:50:29;9.00;88.80
31113;DHT22;17763;48.730;9.136;2023-02-21T08:52:55;9.00;88.80
31113;DHT22;17763;48.730;9.136;2023-02-21T08:55:22;9.00;88.90
31113;DHT22;17763;48.730;9.136;2023-02-21T08:57:49;9.20;89.20
31113;DHT22;17763;48.730;9.136;2023-02-21T09:00:16;9.30;88.90
31113;DHT22;17763;48.730;9.136;2023-02-21T09:02:42;9.30;88.70
31113;DHT22;17763;48.730;9.136;2023-02-21T09:05:26;9.40;88.80
31113;DHT22;17763;48.730;9.136;2023-02-21T09:07:54;9.50;88.90
31113;DHT22;17763;48.730;9.136;2023-02-21T09:10:24;9.50;88.80
31113;DHT22;17763;48.730;9.136;2023-02-21T09:12:50;9.60;88.80
31113;DHT22;17763;48.730;9.136;2023-02-21T09:15:16;9.60;88.80
31113;DHT22;17763;48.730;9.136;2023-02-21T09:17:42;9.70;88.90
31113;DHT22;17763;48.730;9.136;2023-02-21T09:20:10;9.80;88.90
31113;DHT22;17763;48.730;9.136;2023-02-21T09:22:35;9.80;89.50
31113;DHT22;17763;48.730;9.136;2023-02-21T09:25:02;9.90;89.00
31113;DHT22;17763;48.730;9.136;2023-02-21T09:27:28;9.90;88.90
31113;DHT22;17763;48.730;9.136;2023-02-21T09:30:19;10.00;88.60
31113;DHT22;17763;48.730;9.136;2023-02-21T09:32:52;10.10;88.40
31113;DHT22;17763;48.730;9.136;2023-02-21T09:35:18;10.10;88.10
31113;DHT22;17763;48.730;9.136;2023-02-21T09:37:44;10.20;87.70
31113;DHT22;17763;48.730;9.136;2023-02-21T09:40:38;10.30;87.50
31113;DHT22;17763;48.730;9.136;2023-02-21T09:43:11;10.40;87.70
31113;DHT22;17763;48.730;9.136;2023-02-21T09:45:40;10.40;87.70
31113;DHT22;17763;48.730;9.136;2023-02-21T09:48:11;10.50;87.70
31113;DHT22;17763;48.730;9.136;2023-02-21T09:50:40;10.50;87.70
31113;DHT22;17763;48.730;9.136;2023-02-21T09:53:12;10.60;87.40
31113;DHT22;17763;48.730;9.136;2023-02-21T09:55:39;10.70;87.40
31113;DHT22;17763;48.730;9.136;2023-02-21T09:58:13;10.80;87.40
31113;DHT22;17763;48.730;9.136;2023-02-21T10:00:42;10.90;87.30
31113;DHT22;17763;48.730;9.136;2023-02-21T10:11:29;11.10;86.20
31113;DHT22;17763;48.730;9.136;2023-02-21T10:14:20;11.20;85.80
31113;DHT22;17763;48.730;9.136;2023-02-21T10:17:09;11.30;85.90
31113;DHT22;17763;48.730;9.136;2023-02-21T10:19:41;11.40;85.50
31113;DHT22;17763;48.730;9.136;2023-02-21T10:22:19;11.50;85.40
31113;DHT22;17763;48.730;9.136;2023-02-21T10:24:45;11.50;85.00
31113;DHT22;17763;48.730;9.136;2023-02-21T10:27:26;11.50;84.40
31113;DHT22;17763;48.730;9.136;2023-02-21T10:30:04;11.60;84.30
31113;DHT22;17763;48.730;9.136;2023-02-21T10:32:31;11.70;84.30
31113;DHT22;17763;48.730;9.136;2023-02-21T10:34:58;11.70;83.40
31113;DHT22;17763;48.730;9.136;2023-02-21T10:40:33;11.80;82.80
31113;DHT22;17763;48.730;9.136;2023-02-21T10:43:08;11.90;82.50
31113;DHT22;17763;48.730;9.136;2023-02-21T10:48:15;12.00;82.40
31113;DHT22;17763;48.730;9.136;2023-02-21T10:58:56;12.30;80.80
31113;DHT22;17763;48.730;9.136;2023-02-21T11:06:48;12.50;80.10
31113;DHT22;17763;48.730;9.136;2023-02-21T11:12:23;12.50;79.50
31113;DHT22;17763;48.730;9.136;2023-02-21T11:17:27;12.60;78.90
31113;DHT22;17763;48.730;9.136;2023-02-21T11:19:54;12.70;78.50
31113;DHT22;17763;48.730;9.136;2023-02-21T11:27:33;12.90;78.50
31113;DHT22;17763;48.730;9.136;2023-02-21T11:30:02;12.90;78.60
31113;DHT22;17763;48.730;9.136;2023-02-21T11:32:37;13.00;78.60
31113;DHT22;17763;48.730;9.136;2023-02-21T11:35:30;13.00;77.60
31113;DHT22;17763;48.730;9.136;2023-02-21T11:38:03;13.00;77.90
31113;DHT22;17763;48.730;9.136;2023-02-21T11:40:39;13.00;77.50
31113;DHT22;17763;48.730;9.136;2023-02-21T11:43:17;13.10;76.70
31113;DHT22;17763;48.730;9.136;2023-02-21T11:46:11;13.20;76.90
31113;DHT22;17763;48.730;9.136;2023-02-21T11:51:17;13.30;76.70
31113;DHT22;17763;48.730;9.136;2023-02-21T11:53:43;13.30;76.30
31113;DHT22;17763;48.730;9.136;2023-02-21T11:56:18;13.30;76.00
31113;DHT22;17763;48.730;9.136;2023-02-21T12:01:14;13.30;76.10
31113;DHT22;17763;48.730;9.136;2023-02-21T12:06:37;13.30;75.90
31113;DHT22;17763;48.730;9.136;2023-02-21T12:09:22;13.30;75.80
31113;DHT22;17763;48.730;9.136;2023-02-21T12:14:43;13.40;75.40
31113;DHT22;17763;48.730;9.136;2023-02-21T12:17:17;13.40;75.50
31113;DHT22;17763;48.730;9.136;2023-02-21T12:28:36;13.50;74.90
31113;DHT22;17763;48.730;9.136;2023-02-21T12:36:58;13.50;74.30
31113;DHT22;17763;48.730;9.136;2023-02-21T12:44:59;13.60;73.00
31113;DHT22;17763;48.730;9.136;2023-02-21T12:47:31;13.60;72.60
31113;DHT22;17763;48.730;9.136;2023-02-21T12:50:04;13.60;72.70
31113;DHT22;17763;48.730;9.136;2023-02-21T12:52:58;13.70;72.40
31113;DHT22;17763;48.730;9.136;2023-02-21T12:55:40;13.80;72.20
31113;DHT22;17763;48.730;9.136;2023-02-21T12:58:24;13.80;71.80
31113;DHT22;17763;48.730;9.136;2023-02-21T13:01:01;13.90;71.50
31113;DHT22;17763;48.730;9.136;2023-02-21T13:03:51;13.90;71.40
31113;DHT22;17763;48.730;9.136;2023-02-21T13:09:14;14.00;70.90
31113;DHT22;17763;48.730;9.136;2023-02-21T13:12:21;14.10;69.90
31113;DHT22;17763;48.730;9.136;2023-02-21T13:14:58;14.20;69.80
31113;DHT22;17763;48.730;9.136;2023-02-21T13:17:28;14.30;69.20
31113;DHT22;17763;48.730;9.136;2023-02-21T13:20:06;14.40;68.90
31113;DHT22;17763;48.730;9.136;2023-02-21T13:28:39;14.60;68.40
31113;DHT22;17763;48.730;9.136;2023-02-21T13:31:16;14.70;68.00
31113;DHT22;17763;48.730;9.136;2023-02-21T13:33:47;14.80;67.20
31113;DHT22;17763;48.730;9.136;2023-02-21T13:36:26;15.00;67.10
31113;DHT22;17763;48.730;9.136;2023-02-21T13:41:52;15.30;66.60
31113;DHT22;17763;48.730;9.136;2023-02-21T13:49:46;15.40;64.30
31113;DHT22;17763;48.730;9.136;2023-02-21T13:58:42;15.50;64.20
31113;DHT22;17763;48.730;9.136;2023-02-21T14:10:48;16.00;65.80
31113;DHT22;17763;48.730;9.136;2023-02-21T14:13:19;16.10;65.00
31113;DHT22;17763;48.730;9.136;2023-02-21T14:15:48;16.10;64.90
31113;DHT22;17763;48.730;9.136;2023-02-21T14:21:08;16.20;63.40
31113;DHT22;17763;48.730;9.136;2023-02-21T14:23:48;16.30;63.90
31113;DHT22;17763;48.730;9.136;2023-02-21T14:34:18;16.30;62.20
31113;DHT22;17763;48.730;9.136;2023-02-21T14:36:44;16.30;62.30
31113;DHT22;17763;48.730;9.136;2023-02-21T14:39:11;16.30;61.80
31113;DHT22;17763;48.730;9.136;2023-02-21T14:41:52;16.40;61.90
31113;DHT22;17763;48.730;9.136;2023-02-21T15:12:53;17.10;58.80
31113;DHT22;17763;48.730;9.136;2023-02-21T15:15:23;17.10;58.20
31113;DHT22;17763;48.730;9.136;2023-02-21T15:18:02;17.10;58.40
31113;DHT22;17763;48.730;9.136;2023-02-21T15:20:28;17.10;57.90
31113;DHT22;17763;48.730;9.136;2023-02-21T15:22:56;17.10;57.70
31113;DHT22;17763;48.730;9.136;2023-02-21T15:25:26;17.10;57.50
31113;DHT22;17763;48.730;9.136;2023-02-21T15:27:54;17.10;56.80
31113;DHT22;17763;48.730;9.136;2023-02-21T15:30:26;17.00;56.20
31113;DHT22;17763;48.730;9.136;2023-02-21T15:33:16;17.00;56.00
31113;DHT22;17763;48.730;9.136;2023-02-21T15:36:02;16.90;56.30
31113;DHT22;17763;48.730;9.136;2023-02-21T15:39:05;16.80;56.70
31113;DHT22;17763;48.730;9.136;2023-02-21T15:41:45;16.70;56.80
31113;DHT22;17763;48.730;9.136;2023-02-21T15:47:01;16.50;57.40
31113;DHT22;17763;48.730;9.136;2023-02-21T15:49:31;16.40;57.90
31113;DHT22;17763;48.730;9.136;2023-02-21T15:52:00;16.40;58.00
31113;DHT22;17763;48.730;9.136;2023-02-21T15:54:29;16.30;58.10
31113;DHT22;17763;48.730;9.136;2023-02-21T15:57:22;16.20;58.20
31113;DHT22;17763;48.730;9.136;2023-02-21T16:00:15;16.20;58.40
31113;DHT22;17763;48.730;9.136;2023-02-21T16:02:41;16.10;58.30
31113;DHT22;17763;48.730;9.136;2023-02-21T16:05:23;16.00;58.40
31113;DHT22;17763;48.730;9.136;2023-02-21T16:07:49;16.00;58.80
31113;DHT22;17763;48.730;9.136;2023-02-21T16:10:20;15.90;59.00
31113;DHT22;17763;48.730;9.136;2023-02-21T16:12:54;15.80;59.30
31113;DHT22;17763;48.730;9.136;2023-02-21T16:15:24;15.80;59.50
31113;DHT22;17763;48.730;9.136;2023-02-21T16:17:56;15.70;59.80
31113;DHT22;17763;48.730;9.136;2023-02-21T16:20:30;15.60;60.10
31113;DHT22;17763;48.730;9.136;2023-02-21T16:28:43;15.30;61.10
31113;DHT22;17763;48.730;9.136;2023-02-21T16:31:30;15.20;61.40
31113;DHT22;17763;48.730;9.136;2023-02-21T16:33:56;15.10;61.70
31113;DHT22;17763;48.730;9.136;2023-02-21T16:36:30;15.10;62.10
31113;DHT22;17763;48.730;9.136;2023-02-21T16:38:57;14.90;62.30
31113;DHT22;17763;48.730;9.136;2023-02-21T16:41:23;14.90;62.70
31113;DHT22;17763;48.730;9.136;2023-02-21T16:43:51;14.80;62.90
31113;DHT22;17763;48.730;9.136;2023-02-21T16:46:25;14.70;63.10
31113;DHT22;17763;48.730;9.136;2023-02-21T16:48:54;14.70;63.50
31113;DHT22;17763;48.730;9.136;2023-02-21T16:51:25;14.60;63.80
31113;DHT22;17763;48.730;9.136;2023-02-21T16:53:57;14.50;64.10
31113;DHT22;17763;48.730;9.136;2023-02-21T16:56:23;14.50;64.30
31113;DHT22;17763;48.730;9.136;2023-02-21T16:58:53;14.40;64.40
31113;DHT22;17763;48.730;9.136;2023-02-21T17:01:26;14.30;64.60
31113;DHT22;17763;48.730;9.136;2023-02-21T17:03:52;14.30;64.90
31113;DHT22;17763;48.730;9.136;2023-02-21T17:06:25;14.20;65.10
31113;DHT22;17763;48.730;9.136;2023-02-21T17:08:51;14.20;65.40
31113;DHT22;17763;48.730;9.136;2023-02-21T17:11:17;14.10;65.70
31113;DHT22;17763;48.730;9.136;2023-02-21T17:13:45;14.00;65.80
31113;DHT22;17763;48.730;9.136;2023-02-21T17:16:13;14.00;66.00
31113;DHT22;17763;48.730;9.136;2023-02-21T17:18:39;13.90;66.30
31113;DHT22;17763;48.730;9.136;2023-02-21T17:21:05;13.90;66.60
31113;DHT22;17763;48.730;9.136;2023-02-21T17:23:30;13.80;66.90
31113;DHT22;17763;48.730;9.136;2023-02-21T17:25:56;13.70;67.20
31113;DHT22;17763;48.730;9.136;2023-02-21T17:28:22;13.70;67.40
31113;DHT22;17763;48.730;9.136;2023-02-21T17:30:47;13.60;67.50
31113;DHT22;17763;48.730;9.136;2023-02-21T17:33:13;13.60;67.80
31113;DHT22;17763;48.730;9.136;2023-02-21T17:35:40;13.60;68.10
31113;DHT22;17763;48.730;9.136;2023-02-21T17:38:05;13.50;68.30
31113;DHT22;17763;48.730;9.136;2023-02-21T17:40:34;13.50;68.40
31113;DHT22;17763;48.730;9.136;2023-02-21T17:43:02;13.40;68.50
31113;DHT22;17763;48.730;9.136;2023-02-21T17:45:37;13.40;68.70
31113;DHT22;17763;48.730;9.136;2023-02-21T17:48:03;13.40;68.90
31113;DHT22;17763;48.730;9.136;2023-02-21T17:50:35;13.40;69.70
31113;DHT22;17763;48.730;9.136;2023-02-21T17:53:01;13.30;69.20
31113;DHT22;17763;48.730;9.136;2023-02-21T17:55:29;13.30;69.50
31113;DHT22;17763;48.730;9.136;2023-02-21T17:57:56;13.20;69.60
31113;DHT22;17763;48.730;9.136;2023-02-21T18:00:27;13.20;69.90
31113;DHT22;17763;48.730;9.136;2023-02-21T18:02:54;13.10;70.10
31113;DHT22;17763;48.730;9.136;2023-02-21T18:05:23;13.00;70.30
31113;DHT22;17763;48.730;9.136;2023-02-21T18:07:50;13.00;70.40
31113;DHT22;17763;48.730;9.136;2023-02-21T18:10:18;12.90;70.40
31113;DHT22;17763;48.730;9.136;2023-02-21T18:12:44;12.90;70.60
31113;DHT22;17763;48.730;9.136;2023-02-21T18:15:11;12.90;70.80
31113;DHT22;17763;48.730;9.136;2023-02-21T18:17:37;12.80;70.90
31113;DHT22;17763;48.730;9.136;2023-02-21T18:20:03;12.90;71.10
31113;DHT22;17763;48.730;9.136;2023-02-21T18:22:31;12.80;71.20
31113;DHT22;17763;48.730;9.136;2023-02-21T18:24:57;12.80;71.30
31113;DHT22;17763;48.730;9.136;2023-02-21T18:27:22;12.70;71.30
31113;DHT22;17763;48.730;9.136;2023-02-21T18:29:48;12.70;71.30
31113;DHT22;17763;48.730;9.136;2023-02-21T18:32:18;12.70;71.40
31113;DHT22;17763;48.730;9.136;2023-02-21T18:34:44;12.70;71.40
31113;DHT22;17763;48.730;9.136;2023-02-21T18:37:10;12.70;71.50
31113;DHT22;17763;48.730;9.136;2023-02-21T18:39:35;12.70;71.50
31113;DHT22;17763;48.730;9.136;2023-02-21T18:42:01;12.70;72.10
31113;DHT22;17763;48.730;9.136;2023-02-21T18:44:27;12.70;71.70
31113;DHT22;17763;48.730;9.136;2023-02-21T18:46:54;12.60;71.70
31113;DHT22;17763;48.730;9.136;2023-02-21T18:49:21;12.60;71.80
31113;DHT22;17763;48.730;9.136;2023-02-21T18:51:49;12.60;71.80
31113;DHT22;17763;48.730;9.136;2023-02-21T18:54:16;12.60;71.90
31113;DHT22;17763;48.730;9.136;2023-02-21T18:56:46;12.60;72.00
31113;DHT22;17763;48.730;9.136;2023-02-21T18:59:17;12.60;72.10
31113;DHT22;17763;48.730;9.136;2023-02-21T19:01:46;12.50;72.20
31113;DHT22;17763;48.730;9.136;2023-02-21T19:04:12;12.50;72.30
31113;DHT22;17763;48.730;9.136;2023-02-21T19:06:39;12.40;72.40